Terminal Aerodrome Forecast
Issued by NWS

Home | Current Version | Previous Version | Graphics & Text | Print | Product List | Glossary On
Versions: 1 2 3 4 5 6 7 8 9 10 11 12 13 14 15 16 17 18 19 20 21 22 23
000
FTUS43 KLSX 181100 RRA
TAFSUS
TAF
KSUS 181141Z 1812/1912 00000KT P6SM OVC024
     FM181500 09005KT P6SM OVC030
     FM181900 09006KT P6SM SCT040
     FM190100 00000KT P6SM SKC
     FM190900 00000KT 5SM BR SKC=

USA.gov is the U.S. government's official web portal to all federal, state and local government web resources and services.